sensor_id;sensor_type;location;lat;lon;timestamp;temperature;humidity
23801;DHT22;12081;48.614;10.226;2023-04-20T00:01:04;2.30;99.90
23801;DHT22;12081;48.614;10.226;2023-04-20T00:03:49;2.30;99.90
23801;DHT22;12081;48.614;10.226;2023-04-20T00:06:34;2.30;99.90
23801;DHT22;12081;48.614;10.226;2023-04-20T00:09:18;2.20;99.90
23801;DHT22;12081;48.614;10.226;2023-04-20T00:12:02;2.10;99.90
23801;DHT22;12081;48.614;10.226;2023-04-20T00:14:46;2.00;99.90
23801;DHT22;12081;48.614;10.226;2023-04-20T00:17:30;1.90;99.90
23801;DHT22;12081;48.614;10.226;2023-04-20T00:20:14;1.80;99.90
23801;DHT22;12081;48.614;10.226;2023-04-20T00:22:58;1.80;99.90
23801;DHT22;12081;48.614;10.226;2023-04-20T00:25:42;1.80;99.90
23801;DHT22;12081;48.614;10.226;2023-04-20T00:28:26;1.80;99.90
23801;DHT22;12081;48.614;10.226;2023-04-20T00:31:10;1.70;99.90
23801;DHT22;12081;48.614;10.226;2023-04-20T00:33:54;1.70;99.90
23801;DHT22;12081;48.614;10.226;2023-04-20T00:36:39;1.80;99.90
23801;DHT22;12081;48.614;10.226;2023-04-20T00:39:24;1.70;99.90
23801;DHT22;12081;48.614;10.226;2023-04-20T00:42:08;1.60;99.90
23801;DHT22;12081;48.614;10.226;2023-04-20T00:44:52;1.50;99.90
23801;DHT22;12081;48.614;10.226;2023-04-20T00:47:36;1.40;99.90
23801;DHT22;12081;48.614;10.226;2023-04-20T00:50:21;1.30;99.90
23801;DHT22;12081;48.614;10.226;2023-04-20T00:53:06;1.30;99.90
23801;DHT22;12081;48.614;10.226;2023-04-20T00:55:50;1.30;99.90
23801;DHT22;12081;48.614;10.226;2023-04-20T00:58:35;1.30;99.90
23801;DHT22;12081;48.614;10.226;2023-04-20T01:01:20;1.30;99.90
23801;DHT22;12081;48.614;10.226;2023-04-20T01:04:04;1.30;99.90
23801;DHT22;12081;48.614;10.226;2023-04-20T01:06:49;1.40;99.90
23801;DHT22;12081;48.614;10.226;2023-04-20T01:09:33;1.50;99.90
23801;DHT22;12081;48.614;10.226;2023-04-20T01:12:17;1.50;99.90
23801;DHT22;12081;48.614;10.226;2023-04-20T01:15:02;1.40;99.90
23801;DHT22;12081;48.614;10.226;2023-04-20T01:17:46;1.30;99.90
23801;DHT22;12081;48.614;10.226;2023-04-20T01:20:30;1.40;99.90
23801;DHT22;12081;48.614;10.226;2023-04-20T01:23:16;1.40;99.90
23801;DHT22;12081;48.614;10.226;2023-04-20T01:26:05;1.30;99.90
23801;DHT22;12081;48.614;10.226;2023-04-20T01:28:49;1.20;99.90
23801;DHT22;12081;48.614;10.226;2023-04-20T01:31:34;1.00;99.90
23801;DHT22;12081;48.614;10.226;2023-04-20T01:34:18;0.90;99.90
23801;DHT22;12081;48.614;10.226;2023-04-20T01:37:03;0.80;99.90
23801;DHT22;12081;48.614;10.226;2023-04-20T01:39:51;0.70;99.90
23801;DHT22;12081;48.614;10.226;2023-04-20T01:42:35;0.70;99.90
23801;DHT22;12081;48.614;10.226;2023-04-20T01:45:19;0.60;99.90
23801;DHT22;12081;48.614;10.226;2023-04-20T01:48:04;0.50;99.90
23801;DHT22;12081;48.614;10.226;2023-04-20T01:50:52;0.50;99.90
23801;DHT22;12081;48.614;10.226;2023-04-20T01:53:36;0.50;99.90
23801;DHT22;12081;48.614;10.226;2023-04-20T01:56:20;0.50;99.90
23801;DHT22;12081;48.614;10.226;2023-04-20T01:59:04;0.60;99.90
23801;DHT22;12081;48.614;10.226;2023-04-20T02:01:48;0.60;99.90
23801;DHT22;12081;48.614;10.226;2023-04-20T02:04:32;0.60;99.90
23801;DHT22;12081;48.614;10.226;2023-04-20T02:07:16;0.60;99.90
23801;DHT22;12081;48.614;10.226;2023-04-20T02:10:00;0.60;99.90
23801;DHT22;12081;48.614;10.226;2023-04-20T02:12:45;0.60;99.90
23801;DHT22;12081;48.614;10.226;2023-04-20T02:15:29;0.50;99.90
23801;DHT22;12081;48.614;10.226;2023-04-20T02:18:14;0.50;99.90
23801;DHT22;12081;48.614;10.226;2023-04-20T02:20:59;0.50;99.90
23801;DHT22;12081;48.614;10.226;2023-04-20T02:23:44;0.50;99.90
23801;DHT22;12081;48.614;10.226;2023-04-20T02:26:28;0.40;99.90
23801;DHT22;12081;48.614;10.226;2023-04-20T02:29:12;0.50;99.90
23801;DHT22;12081;48.614;10.226;2023-04-20T02:31:56;0.50;99.90
23801;DHT22;12081;48.614;10.226;2023-04-20T02:34:40;0.50;99.90
23801;DHT22;12081;48.614;10.226;2023-04-20T02:37:24;0.40;99.90
23801;DHT22;12081;48.614;10.226;2023-04-20T02:40:08;0.40;99.90
23801;DHT22;12081;48.614;10.226;2023-04-20T05:30:39;2.10;99.90
23801;DHT22;12081;48.614;10.226;2023-04-20T05:33:23;2.10;99.90
23801;DHT22;12081;48.614;10.226;2023-04-20T05:36:08;2.20;99.90
23801;DHT22;12081;48.614;10.226;2023-04-20T05:38:53;2.10;99.90
23801;DHT22;12081;48.614;10.226;2023-04-20T05:41:37;2.20;99.90
23801;DHT22;12081;48.614;10.226;2023-04-20T05:44:21;2.30;99.90
23801;DHT22;12081;48.614;10.226;2023-04-20T05:49:51;2.40;99.90
23801;DHT22;12081;48.614;10.226;2023-04-20T05:52:35;2.30;99.90
23801;DHT22;12081;48.614;10.226;2023-04-20T05:55:20;2.40;99.90
23801;DHT22;12081;48.614;10.226;2023-04-20T05:58:04;2.40;99.90
23801;DHT22;12081;48.614;10.226;2023-04-20T06:00:48;2.40;99.90
23801;DHT22;12081;48.614;10.226;2023-04-20T06:03:32;2.40;99.90
23801;DHT22;12081;48.614;10.226;2023-04-20T06:06:17;2.40;99.90
23801;DHT22;12081;48.614;10.226;2023-04-20T06:09:01;2.30;99.90
23801;DHT22;12081;48.614;10.226;2023-04-20T06:11:46;2.40;99.90
23801;DHT22;12081;48.614;10.226;2023-04-20T06:14:30;2.40;99.90
23801;DHT22;12081;48.614;10.226;2023-04-20T06:19:59;2.40;99.90
23801;DHT22;12081;48.614;10.226;2023-04-20T06:22:44;2.60;99.90
23801;DHT22;12081;48.614;10.226;2023-04-20T06:25:28;2.50;99.90
23801;DHT22;12081;48.614;10.226;2023-04-20T06:28:12;2.50;99.90
23801;DHT22;12081;48.614;10.226;2023-04-20T06:30:56;2.50;99.90
23801;DHT22;12081;48.614;10.226;2023-04-20T06:33:40;2.30;99.90
23801;DHT22;12081;48.614;10.226;2023-04-20T06:36:24;2.30;99.90
23801;DHT22;12081;48.614;10.226;2023-04-20T06:39:10;2.50;99.90
23801;DHT22;12081;48.614;10.226;2023-04-20T06:41:54;2.50;99.90
23801;DHT22;12081;48.614;10.226;2023-04-20T06:47:25;2.40;99.90
23801;DHT22;12081;48.614;10.226;2023-04-20T06:50:14;2.50;99.90
23801;DHT22;12081;48.614;10.226;2023-04-20T06:52:58;2.40;99.90
23801;DHT22;12081;48.614;10.226;2023-04-20T06:58:27;2.40;99.90
23801;DHT22;12081;48.614;10.226;2023-04-20T07:03:55;2.60;99.90
23801;DHT22;12081;48.614;10.226;2023-04-20T07:06:39;2.60;99.90
23801;DHT22;12081;48.614;10.226;2023-04-20T07:09:23;2.60;99.90
23801;DHT22;12081;48.614;10.226;2023-04-20T07:12:08;2.80;99.90
23801;DHT22;12081;48.614;10.226;2023-04-20T07:14:54;2.70;99.90
23801;DHT22;12081;48.614;10.226;2023-04-20T07:20:25;2.60;99.90
23801;DHT22;12081;48.614;10.226;2023-04-20T07:23:09;2.70;99.90
23801;DHT22;12081;48.614;10.226;2023-04-20T07:25:53;2.50;99.90
23801;DHT22;12081;48.614;10.226;2023-04-20T07:28:37;2.60;99.90
23801;DHT22;12081;48.614;10.226;2023-04-20T07:31:21;2.80;99.90
23801;DHT22;12081;48.614;10.226;2023-04-20T07:34:05;2.80;99.90
23801;DHT22;12081;48.614;10.226;2023-04-20T07:36:49;2.80;99.90
23801;DHT22;12081;48.614;10.226;2023-04-20T07:39:33;2.90;99.90
23801;DHT22;12081;48.614;10.226;2023-04-20T07:42:21;3.10;99.90
23801;DHT22;12081;48.614;10.226;2023-04-20T07:45:05;3.00;99.90
23801;DHT22;12081;48.614;10.226;2023-04-20T07:47:50;2.80;99.90
23801;DHT22;12081;48.614;10.226;2023-04-20T07:53:22;0.30;99.90
23801;DHT22;12081;48.614;10.226;2023-04-20T07:56:06;3.10;99.90
23801;DHT22;12081;48.614;10.226;2023-04-20T07:58:51;3.20;99.90
23801;DHT22;12081;48.614;10.226;2023-04-20T08:01:35;3.20;99.90
23801;DHT22;12081;48.614;10.226;2023-04-20T08:04:19;3.20;99.90
23801;DHT22;12081;48.614;10.226;2023-04-20T08:07:03;3.20;99.90
23801;DHT22;12081;48.614;10.226;2023-04-20T08:09:47;3.20;99.90
23801;DHT22;12081;48.614;10.226;2023-04-20T08:12:32;3.20;99.90
23801;DHT22;12081;48.614;10.226;2023-04-20T08:15:16;3.30;99.90
23801;DHT22;12081;48.614;10.226;2023-04-20T08:18:00;3.30;99.90
23801;DHT22;12081;48.614;10.226;2023-04-20T08:20:44;3.40;99.90
23801;DHT22;12081;48.614;10.226;2023-04-20T08:23:29;3.40;99.90
23801;DHT22;12081;48.614;10.226;2023-04-20T08:26:14;3.50;99.90
23801;DHT22;12081;48.614;10.226;2023-04-20T08:29:00;3.50;99.90
23801;DHT22;12081;48.614;10.226;2023-04-20T08:31:44;3.70;99.90
23801;DHT22;12081;48.614;10.226;2023-04-20T08:34:29;3.70;99.90
23801;DHT22;12081;48.614;10.226;2023-04-20T08:37:13;3.80;99.90
23801;DHT22;12081;48.614;10.226;2023-04-20T08:39:57;3.80;99.90
23801;DHT22;12081;48.614;10.226;2023-04-20T08:42:41;3.90;99.90
23801;DHT22;12081;48.614;10.226;2023-04-20T08:45:26;3.90;99.90
23801;DHT22;12081;48.614;10.226;2023-04-20T08:48:10;4.10;99.90
23801;DHT22;12081;48.614;10.226;2023-04-20T08:50:55;4.10;99.90
23801;DHT22;12081;48.614;10.226;2023-04-20T08:53:39;4.10;99.90
23801;DHT22;12081;48.614;10.226;2023-04-20T08:56:33;4.10;99.90
23801;DHT22;12081;48.614;10.226;2023-04-20T08:59:17;4.10;99.90
23801;DHT22;12081;48.614;10.226;2023-04-20T09:02:11;4.10;99.90
23801;DHT22;12081;48.614;10.226;2023-04-20T09:05:00;4.00;99.90
23801;DHT22;12081;48.614;10.226;2023-04-20T09:07:51;4.10;99.90
23801;DHT22;12081;48.614;10.226;2023-04-20T09:10:43;4.20;99.90
23801;DHT22;12081;48.614;10.226;2023-04-20T09:13:27;4.20;99.90
23801;DHT22;12081;48.614;10.226;2023-04-20T09:16:12;4.30;99.90
23801;DHT22;12081;48.614;10.226;2023-04-20T09:18:57;4.10;99.90
23801;DHT22;12081;48.614;10.226;2023-04-20T09:21:48;4.20;99.90
23801;DHT22;12081;48.614;10.226;2023-04-20T09:24:35;4.00;99.90
23801;DHT22;12081;48.614;10.226;2023-04-20T09:27:20;4.30;99.90
23801;DHT22;12081;48.614;10.226;2023-04-20T09:30:06;4.40;99.90
23801;DHT22;12081;48.614;10.226;2023-04-20T09:33:04;4.50;99.90
23801;DHT22;12081;48.614;10.226;2023-04-20T09:35:50;4.60;99.90
23801;DHT22;12081;48.614;10.226;2023-04-20T09:38:34;4.70;99.90
23801;DHT22;12081;48.614;10.226;2023-04-20T09:41:19;4.70;99.90
23801;DHT22;12081;48.614;10.226;2023-04-20T09:44:04;4.70;99.90
23801;DHT22;12081;48.614;10.226;2023-04-20T09:46:48;4.70;99.90
23801;DHT22;12081;48.614;10.226;2023-04-20T09:49:32;4.70;99.90
23801;DHT22;12081;48.614;10.226;2023-04-20T09:52:17;4.80;99.90
23801;DHT22;12081;48.614;10.226;2023-04-20T09:55:02;4.70;99.90
23801;DHT22;12081;48.614;10.226;2023-04-20T09:57:48;4.70;99.90
23801;DHT22;12081;48.614;10.226;2023-04-20T10:00:33;4.80;99.90
23801;DHT22;12081;48.614;10.226;2023-04-20T10:03:18;4.90;99.90
23801;DHT22;12081;48.614;10.226;2023-04-20T10:06:02;5.20;99.90
23801;DHT22;12081;48.614;10.226;2023-04-20T10:08:47;5.10;99.90
23801;DHT22;12081;48.614;10.226;2023-04-20T10:11:37;5.10;99.90
23801;DHT22;12081;48.614;10.226;2023-04-20T10:14:25;5.20;99.90
23801;DHT22;12081;48.614;10.226;2023-04-20T10:17:09;5.20;99.90
23801;DHT22;12081;48.614;10.226;2023-04-20T10:19:54;5.30;99.90
23801;DHT22;12081;48.614;10.226;2023-04-20T10:22:39;6.20;99.90
23801;DHT22;12081;48.614;10.226;2023-04-20T10:25:24;5.30;99.90
23801;DHT22;12081;48.614;10.226;2023-04-20T10:28:09;5.30;99.90
23801;DHT22;12081;48.614;10.226;2023-04-20T10:30:55;5.30;99.90
23801;DHT22;12081;48.614;10.226;2023-04-20T10:33:53;5.30;99.90
23801;DHT22;12081;48.614;10.226;2023-04-20T10:36:38;5.30;99.90
23801;DHT22;12081;48.614;10.226;2023-04-20T10:39:23;5.30;99.90
23801;DHT22;12081;48.614;10.226;2023-04-20T10:42:08;5.30;99.90
23801;DHT22;12081;48.614;10.226;2023-04-20T10:44:53;5.40;99.90
23801;DHT22;12081;48.614;10.226;2023-04-20T10:47:37;5.40;99.90
23801;DHT22;12081;48.614;10.226;2023-04-20T10:50:24;5.40;99.90
23801;DHT22;12081;48.614;10.226;2023-04-20T10:53:22;5.50;99.90
23801;DHT22;12081;48.614;10.226;2023-04-20T10:56:06;5.50;99.90
23801;DHT22;12081;48.614;10.226;2023-04-20T10:58:50;5.60;99.90
23801;DHT22;12081;48.614;10.226;2023-04-20T11:01:34;5.70;99.90
23801;DHT22;12081;48.614;10.226;2023-04-20T11:04:28;5.60;99.90
23801;DHT22;12081;48.614;10.226;2023-04-20T11:07:13;5.70;99.90
23801;DHT22;12081;48.614;10.226;2023-04-20T11:09:57;5.70;99.90
23801;DHT22;12081;48.614;10.226;2023-04-20T11:12:41;5.60;99.90
23801;DHT22;12081;48.614;10.226;2023-04-20T11:15:35;5.60;99.90
23801;DHT22;12081;48.614;10.226;2023-04-20T11:18:19;5.60;99.90
23801;DHT22;12081;48.614;10.226;2023-04-20T11:21:04;5.60;99.90
23801;DHT22;12081;48.614;10.226;2023-04-20T11:23:49;5.60;99.90
23801;DHT22;12081;48.614;10.226;2023-04-20T11:26:37;5.40;99.90
23801;DHT22;12081;48.614;10.226;2023-04-20T11:32:11;5.30;99.90
23801;DHT22;12081;48.614;10.226;2023-04-20T11:35:00;5.30;99.90
23801;DHT22;12081;48.614;10.226;2023-04-20T11:37:45;5.30;99.90
23801;DHT22;12081;48.614;10.226;2023-04-20T11:40:30;8.40;99.90
23801;DHT22;12081;48.614;10.226;2023-04-20T11:43:15;5.30;99.90
23801;DHT22;12081;48.614;10.226;2023-04-20T11:45:59;5.30;99.90
23801;DHT22;12081;48.614;10.226;2023-04-20T11:48:46;5.30;99.90
23801;DHT22;12081;48.614;10.226;2023-04-20T11:51:30;5.20;99.90
23801;DHT22;12081;48.614;10.226;2023-04-20T11:54:15;5.10;99.90
23801;DHT22;12081;48.614;10.226;2023-04-20T11:56:59;5.20;99.90
23801;DHT22;12081;48.614;10.226;2023-04-20T11:59:44;5.20;99.90
23801;DHT22;12081;48.614;10.226;2023-04-20T12:02:32;5.20;99.90
23801;DHT22;12081;48.614;10.226;2023-04-20T12:05:16;5.20;99.90
23801;DHT22;12081;48.614;10.226;2023-04-20T12:08:00;5.30;99.90
23801;DHT22;12081;48.614;10.226;2023-04-20T12:10:44;5.40;99.90
23801;DHT22;12081;48.614;10.226;2023-04-20T12:13:29;5.40;99.90
23801;DHT22;12081;48.614;10.226;2023-04-20T12:16:13;5.40;99.90
23801;DHT22;12081;48.614;10.226;2023-04-20T12:18:57;5.40;99.90
23801;DHT22;12081;48.614;10.226;2023-04-20T12:21:41;5.50;99.90
23801;DHT22;12081;48.614;10.226;2023-04-20T12:24:25;5.50;99.90
23801;DHT22;12081;48.614;10.226;2023-04-20T12:27:09;5.50;99.90
23801;DHT22;12081;48.614;10.226;2023-04-20T12:29:53;5.50;99.90
23801;DHT22;12081;48.614;10.226;2023-04-20T12:32:38;5.50;99.90
23801;DHT22;12081;48.614;10.226;2023-04-20T12:35:22;8.90;99.90
23801;DHT22;12081;48.614;10.226;2023-04-20T12:38:06;5.50;99.90
23801;DHT22;12081;48.614;10.226;2023-04-20T12:40:50;9.00;99.90
23801;DHT22;12081;48.614;10.226;2023-04-20T12:43:34;5.50;99.90
23801;DHT22;12081;48.614;10.226;2023-04-20T12:46:18;5.50;99.90
23801;DHT22;12081;48.614;10.226;2023-04-20T12:49:02;5.40;99.90
23801;DHT22;12081;48.614;10.226;2023-04-20T12:51:46;5.10;99.90
23801;DHT22;12081;48.614;10.226;2023-04-20T12:54:30;5.30;99.90
23801;DHT22;12081;48.614;10.226;2023-04-20T12:57:14;6.70;99.90
23801;DHT22;12081;48.614;10.226;2023-04-20T12:59:58;5.20;99.90
23801;DHT22;12081;48.614;10.226;2023-04-20T13:02:45;5.30;99.90
23801;DHT22;12081;48.614;10.226;2023-04-20T13:05:29;5.10;99.90
23801;DHT22;12081;48.614;10.226;2023-04-20T13:08:13;5.20;99.90
23801;DHT22;12081;48.614;10.226;2023-04-20T13:10:57;5.20;99.90
23801;DHT22;12081;48.614;10.226;2023-04-20T13:13:41;5.20;99.90
23801;DHT22;12081;48.614;10.226;2023-04-20T13:16:25;5.20;99.90
23801;DHT22;12081;48.614;10.226;2023-04-20T13:19:09;5.30;99.90
23801;DHT22;12081;48.614;10.226;2023-04-20T13:21:53;5.40;99.90
23801;DHT22;12081;48.614;10.226;2023-04-20T13:24:37;5.40;99.90
23801;DHT22;12081;48.614;10.226;2023-04-20T13:27:21;5.50;99.90
23801;DHT22;12081;48.614;10.226;2023-04-20T13:30:06;5.50;99.90
23801;DHT22;12081;48.614;10.226;2023-04-20T13:32:51;5.50;99.90
23801;DHT22;12081;48.614;10.226;2023-04-20T13:35:35;5.50;99.90
23801;DHT22;12081;48.614;10.226;2023-04-20T13:38:20;5.60;99.90
23801;DHT22;12081;48.614;10.226;2023-04-20T13:41:04;5.60;99.90
23801;DHT22;12081;48.614;10.226;2023-04-20T13:43:48;5.50;99.90
23801;DHT22;12081;48.614;10.226;2023-04-20T13:46:33;5.50;99.90
23801;DHT22;12081;48.614;10.226;2023-04-20T13:49:17;5.50;99.90
23801;DHT22;12081;48.614;10.226;2023-04-20T13:52:05;5.50;99.90
23801;DHT22;12081;48.614;10.226;2023-04-20T13:54:49;5.50;99.90
23801;DHT22;12081;48.614;10.226;2023-04-20T13:57:34;5.40;99.90
23801;DHT22;12081;48.614;10.226;2023-04-20T14:00:18;5.50;99.90
23801;DHT22;12081;48.614;10.226;2023-04-20T14:03:02;5.40;99.90
23801;DHT22;12081;48.614;10.226;2023-04-20T14:05:48;6.20;99.90
23801;DHT22;12081;48.614;10.226;2023-04-20T14:08:32;5.50;99.90
23801;DHT22;12081;48.614;10.226;2023-04-20T14:11:16;5.50;99.90
23801;DHT22;12081;48.614;10.226;2023-04-20T14:14:00;5.50;99.90
23801;DHT22;12081;48.614;10.226;2023-04-20T14:16:45;5.60;99.90
23801;DHT22;12081;48.614;10.226;2023-04-20T14:19:30;5.60;99.90
23801;DHT22;12081;48.614;10.226;2023-04-20T14:22:15;5.70;99.90
23801;DHT22;12081;48.614;10.226;2023-04-20T14:24:59;5.80;99.90
23801;DHT22;12081;48.614;10.226;2023-04-20T14:27:43;6.60;99.90
23801;DHT22;12081;48.614;10.226;2023-04-20T14:30:27;5.90;99.90
23801;DHT22;12081;48.614;10.226;2023-04-20T14:33:11;5.80;99.90
23801;DHT22;12081;48.614;10.226;2023-04-20T14:35:55;5.80;99.90
23801;DHT22;12081;48.614;10.226;2023-04-20T14:38:39;5.70;99.90
23801;DHT22;12081;48.614;10.226;2023-04-20T14:41:23;5.70;99.90
23801;DHT22;12081;48.614;10.226;2023-04-20T14:44:07;5.70;99.90
23801;DHT22;12081;48.614;10.226;2023-04-20T14:46:51;5.70;99.90
23801;DHT22;12081;48.614;10.226;2023-04-20T14:49:38;5.60;99.90
23801;DHT22;12081;48.614;10.226;2023-04-20T14:52:22;5.70;99.90
23801;DHT22;12081;48.614;10.226;2023-04-20T14:55:07;5.70;99.90
23801;DHT22;12081;48.614;10.226;2023-04-20T14:57:55;5.70;99.90
23801;DHT22;12081;48.614;10.226;2023-04-20T15:00:40;5.70;99.90
23801;DHT22;12081;48.614;10.226;2023-04-20T15:03:24;5.70;99.90
23801;DHT22;12081;48.614;10.226;2023-04-20T15:06:08;5.70;99.90
23801;DHT22;12081;48.614;10.226;2023-04-20T15:08:52;5.70;99.90
23801;DHT22;12081;48.614;10.226;2023-04-20T15:11:39;5.60;99.90
23801;DHT22;12081;48.614;10.226;2023-04-20T15:14:24;5.60;99.90
23801;DHT22;12081;48.614;10.226;2023-04-20T15:17:08;5.60;99.90
23801;DHT22;12081;48.614;10.226;2023-04-20T15:19:53;5.50;99.90
23801;DHT22;12081;48.614;10.226;2023-04-20T15:22:37;5.50;99.90
23801;DHT22;12081;48.614;10.226;2023-04-20T15:25:21;5.40;99.90
23801;DHT22;12081;48.614;10.226;2023-04-20T15:28:06;5.50;99.90
23801;DHT22;12081;48.614;10.226;2023-04-20T15:30:50;5.50;99.90
23801;DHT22;12081;48.614;10.226;2023-04-20T15:33:34;5.50;99.90
23801;DHT22;12081;48.614;10.226;2023-04-20T15:36:18;5.50;99.90
23801;DHT22;12081;48.614;10.226;2023-04-20T15:39:02;5.50;99.90
23801;DHT22;12081;48.614;10.226;2023-04-20T15:41:46;5.50;99.90
23801;DHT22;12081;48.614;10.226;2023-04-20T15:44:30;5.50;99.90
23801;DHT22;12081;48.614;10.226;2023-04-20T15:47:15;5.50;99.90
23801;DHT22;12081;48.614;10.226;2023-04-20T15:49:59;5.50;99.90
23801;DHT22;12081;48.614;10.226;2023-04-20T15:52:44;5.60;99.90
23801;DHT22;12081;48.614;10.226;2023-04-20T15:55:32;5.50;99.90
23801;DHT22;12081;48.614;10.226;2023-04-20T15:58:17;5.60;99.90
23801;DHT22;12081;48.614;10.226;2023-04-20T16:01:01;5.50;99.90
23801;DHT22;12081;48.614;10.226;2023-04-20T16:03:45;5.50;99.90
23801;DHT22;12081;48.614;10.226;2023-04-20T16:06:30;5.50;99.90
23801;DHT22;12081;48.614;10.226;2023-04-20T16:09:14;5.50;99.90
23801;DHT22;12081;48.614;10.226;2023-04-20T16:11:59;5.50;99.90
23801;DHT22;12081;48.614;10.226;2023-04-20T16:14:44;5.50;99.90
23801;DHT22;12081;48.614;10.226;2023-04-20T16:17:28;5.50;99.90
23801;DHT22;12081;48.614;10.226;2023-04-20T16:20:12;5.50;99.90
23801;DHT22;12081;48.614;10.226;2023-04-20T16:22:56;5.50;99.90
23801;DHT22;12081;48.614;10.226;2023-04-20T16:25:40;6.20;99.90
23801;DHT22;12081;48.614;10.226;2023-04-20T16:28:25;5.50;99.90
23801;DHT22;12081;48.614;10.226;2023-04-20T16:31:09;5.50;99.90
23801;DHT22;12081;48.614;10.226;2023-04-20T16:33:54;5.60;99.90
23801;DHT22;12081;48.614;10.226;2023-04-20T16:36:39;5.60;99.90
23801;DHT22;12081;48.614;10.226;2023-04-20T16:39:23;5.60;99.90
23801;DHT22;12081;48.614;10.226;2023-04-20T16:42:07;5.70;99.90
23801;DHT22;12081;48.614;10.226;2023-04-20T16:44:51;5.60;99.90
23801;DHT22;12081;48.614;10.226;2023-04-20T16:47:35;5.60;99.90
23801;DHT22;12081;48.614;10.226;2023-04-20T16:50:19;5.70;99.90
23801;DHT22;12081;48.614;10.226;2023-04-20T16:53:03;5.80;99.90
23801;DHT22;12081;48.614;10.226;2023-04-20T16:55:48;5.70;99.90
23801;DHT22;12081;48.614;10.226;2023-04-20T16:58:32;5.70;99.90
23801;DHT22;12081;48.614;10.226;2023-04-20T17:01:22;5.70;99.90
23801;DHT22;12081;48.614;10.226;2023-04-20T17:04:06;5.60;99.90
23801;DHT22;12081;48.614;10.226;2023-04-20T17:06:50;5.70;99.90
23801;DHT22;12081;48.614;10.226;2023-04-20T17:09:34;5.60;99.90
23801;DHT22;12081;48.614;10.226;2023-04-20T17:12:19;5.60;99.90
23801;DHT22;12081;48.614;10.226;2023-04-20T17:15:04;5.50;99.90
23801;DHT22;12081;48.614;10.226;2023-04-20T17:17:48;5.50;99.90
23801;DHT22;12081;48.614;10.226;2023-04-20T17:20:32;5.50;99.90
23801;DHT22;12081;48.614;10.226;2023-04-20T17:23:17;5.50;99.90
23801;DHT22;12081;48.614;10.226;2023-04-20T17:26:02;5.40;99.90
23801;DHT22;12081;48.614;10.226;2023-04-20T17:28:46;5.40;99.90
23801;DHT22;12081;48.614;10.226;2023-04-20T17:31:30;5.40;99.90
23801;DHT22;12081;48.614;10.226;2023-04-20T17:34:16;5.40;99.90
23801;DHT22;12081;48.614;10.226;2023-04-20T17:37:02;5.40;99.90
23801;DHT22;12081;48.614;10.226;2023-04-20T17:39:46;5.40;99.90
23801;DHT22;12081;48.614;10.226;2023-04-20T17:42:30;5.40;99.90
23801;DHT22;12081;48.614;10.226;2023-04-20T17:45:15;5.40;99.90
23801;DHT22;12081;48.614;10.226;2023-04-20T17:47:59;5.40;99.90
23801;DHT22;12081;48.614;10.226;2023-04-20T17:50:47;5.50;99.90
23801;DHT22;12081;48.614;10.226;2023-04-20T17:53:31;5.50;99.90
23801;DHT22;12081;48.614;10.226;2023-04-20T17:56:15;5.40;99.90
23801;DHT22;12081;48.614;10.226;2023-04-20T17:58:59;5.50;99.90
23801;DHT22;12081;48.614;10.226;2023-04-20T18:01:43;8.10;99.90
23801;DHT22;12081;48.614;10.226;2023-04-20T18:04:27;5.40;99.90
23801;DHT22;12081;48.614;10.226;2023-04-20T18:07:11;5.30;99.90
23801;DHT22;12081;48.614;10.226;2023-04-20T18:10:04;5.20;99.90
23801;DHT22;12081;48.614;10.226;2023-04-20T18:12:49;5.30;99.90
23801;DHT22;12081;48.614;10.226;2023-04-20T18:15:32;5.20;99.90
23801;DHT22;12081;48.614;10.226;2023-04-20T18:18:17;5.20;99.90
23801;DHT22;12081;48.614;10.226;2023-04-20T18:21:04;5.20;99.90
23801;DHT22;12081;48.614;10.226;2023-04-20T18:23:48;5.10;99.90
23801;DHT22;12081;48.614;10.226;2023-04-20T18:26:32;5.10;99.90
23801;DHT22;12081;48.614;10.226;2023-04-20T18:29:16;5.10;99.90
23801;DHT22;12081;48.614;10.226;2023-04-20T18:32:00;5.10;99.90
23801;DHT22;12081;48.614;10.226;2023-04-20T18:34:44;5.00;99.90
23801;DHT22;12081;48.614;10.226;2023-04-20T18:37:29;5.00;99.90
23801;DHT22;12081;48.614;10.226;2023-04-20T18:40:13;5.00;99.90
23801;DHT22;12081;48.614;10.226;2023-04-20T18:42:57;5.00;99.90
23801;DHT22;12081;48.614;10.226;2023-04-20T18:45:41;5.10;99.90
23801;DHT22;12081;48.614;10.226;2023-04-20T18:48:25;5.00;99.90
23801;DHT22;12081;48.614;10.226;2023-04-20T18:51:09;5.00;99.90
23801;DHT22;12081;48.614;10.226;2023-04-20T18:53:53;5.00;99.90
23801;DHT22;12081;48.614;10.226;2023-04-20T18:56:37;5.00;99.90
23801;DHT22;12081;48.614;10.226;2023-04-20T18:59:22;5.00;99.90
23801;DHT22;12081;48.614;10.226;2023-04-20T19:02:07;5.10;99.90
23801;DHT22;12081;48.614;10.226;2023-04-20T19:04:53;5.00;99.90
23801;DHT22;12081;48.614;10.226;2023-04-20T19:07:37;5.00;99.90
23801;DHT22;12081;48.614;10.226;2023-04-20T19:10:21;5.10;99.90
23801;DHT22;12081;48.614;10.226;2023-04-20T19:13:05;5.00;99.90
23801;DHT22;12081;48.614;10.226;2023-04-20T19:15:49;5.00;99.90
23801;DHT22;12081;48.614;10.226;2023-04-20T19:18:38;5.00;99.90
23801;DHT22;12081;48.614;10.226;2023-04-20T19:21:22;5.00;99.90
23801;DHT22;12081;48.614;10.226;2023-04-20T19:24:06;5.00;99.90
23801;DHT22;12081;48.614;10.226;2023-04-20T19:26:51;5.00;99.90
23801;DHT22;12081;48.614;10.226;2023-04-20T19:29:35;5.00;99.90
23801;DHT22;12081;48.614;10.226;2023-04-20T19:32:19;5.00;99.90
23801;DHT22;12081;48.614;10.226;2023-04-20T19:35:04;5.00;99.90
23801;DHT22;12081;48.614;10.226;2023-04-20T19:37:48;5.00;99.90
23801;DHT22;12081;48.614;10.226;2023-04-20T19:40:32;5.00;99.90
23801;DHT22;12081;48.614;10.226;2023-04-20T19:43:16;5.10;99.90
23801;DHT22;12081;48.614;10.226;2023-04-20T19:46:00;5.10;99.90
23801;DHT22;12081;48.614;10.226;2023-04-20T19:48:44;5.10;99.90
23801;DHT22;12081;48.614;10.226;2023-04-20T19:51:30;5.10;99.90
23801;DHT22;12081;48.614;10.226;2023-04-20T19:54:15;5.10;99.90
23801;DHT22;12081;48.614;10.226;2023-04-20T19:57:00;5.10;99.90
23801;DHT22;12081;48.614;10.226;2023-04-20T19:59:44;5.10;99.90
23801;DHT22;12081;48.614;10.226;2023-04-20T20:02:28;5.20;99.90
23801;DHT22;12081;48.614;10.226;2023-04-20T20:05:12;5.20;99.90
23801;DHT22;12081;48.614;10.226;2023-04-20T20:07:56;5.10;99.90
23801;DHT22;12081;48.614;10.226;2023-04-20T20:10:40;5.10;99.90
23801;DHT22;12081;48.614;10.226;2023-04-20T20:13:24;5.10;99.90
23801;DHT22;12081;48.614;10.226;2023-04-20T20:16:09;5.00;99.90
23801;DHT22;12081;48.614;10.226;2023-04-20T20:18:53;5.00;99.90
23801;DHT22;12081;48.614;10.226;2023-04-20T20:21:38;5.00;99.90
23801;DHT22;12081;48.614;10.226;2023-04-20T20:24:22;5.00;99.90
23801;DHT22;12081;48.614;10.226;2023-04-20T20:27:06;5.00;99.90
23801;DHT22;12081;48.614;10.226;2023-04-20T20:29:50;5.00;99.90